Time;durP1;ratioP1;P1;durP2;ratioP2;P2;SDS_P1;SDS_P2;PMS_P1;PMS_P2;Temp;Humidity;BMP_temperature;BMP_pressure;BME280_temperature;BME280_humidity;BME280_pressure;Samples;Min_cycle;Max_cycle;Signal;HPM_P1;HPM_P2
2023/11/18 00:00:12;;;;;;;4.97;3.05;;;0.00;99.50;;;;;;5007116;28;20049;-77
2023/11/18 00:02:38;;;;;;;4.73;2.40;;;0.00;99.50;;;;;;5006841;28;20603;-77
2023/11/18 00:05:04;;;;;;;6.97;3.03;;;-3276.70;99.40;;;;;;5014080;28;20112;-77
2023/11/18 00:07:32;;;;;;;4.93;2.47;;;-3276.60;99.50;;;;;;5009891;28;20077;-77
2023/11/18 00:09:57;;;;;;;4.57;2.45;;;-3276.50;99.50;;;;;;5005157;28;20033;-77
2023/11/18 00:12:24;;;;;;;7.30;2.78;;;-3276.50;99.50;;;;;;5006662;28;20022;-77
2023/11/18 00:14:49;;;;;;;4.57;2.08;;;-3276.40;99.50;;;;;;5009318;28;20022;-77
2023/11/18 00:17:15;;;;;;;4.97;2.60;;;-3276.40;99.60;;;;;;5003749;28;20030;-77
2023/11/18 00:19:42;;;;;;;5.18;2.50;;;-3276.40;99.50;;;;;;5010643;28;20030;-77
2023/11/18 00:22:08;;;;;;;5.93;2.35;;;-3276.30;99.50;;;;;;5013790;28;20042;-77
2023/11/18 00:24:34;;;;;;;5.60;3.10;;;-3276.30;99.50;;;;;;5004830;28;20030;-77
2023/11/18 00:27:05;;;;;;;6.00;2.75;;;-3276.30;99.60;;;;;;5010064;28;20125;-77
2023/11/18 00:29:34;;;;;;;5.13;2.55;;;-3276.20;99.50;;;;;;5004640;28;20391;-77
2023/11/18 00:32:03;;;;;;;5.45;2.75;;;-3276.20;99.50;;;;;;5013003;28;21028;-77
2023/11/18 00:34:29;;;;;;;6.28;2.58;;;-3276.10;99.50;;;;;;5010930;28;20060;-76
2023/11/18 00:36:58;;;;;;;5.60;3.00;;;-3276.10;99.50;;;;;;5009007;28;20029;-77
2023/11/18 00:39:25;;;;;;;4.47;2.88;;;-3276.00;99.50;;;;;;5006694;28;20068;-77
2023/11/18 00:41:50;;;;;;;6.57;2.70;;;-3276.00;99.50;;;;;;5007745;28;20031;-76
2023/11/18 00:44:16;;;;;;;5.32;2.80;;;-3276.00;99.60;;;;;;5010599;28;20034;-77
2023/11/18 00:46:41;;;;;;;6.85;2.58;;;-3276.00;99.50;;;;;;5007994;28;20810;-76
2023/11/18 00:49:07;;;;;;;4.93;2.63;;;-3275.90;99.50;;;;;;5009098;28;20065;-76
2023/11/18 00:51:32;;;;;;;5.53;2.90;;;-3276.00;99.60;;;;;;5011463;28;20041;-76
2023/11/18 00:54:00;;;;;;;3.83;2.25;;;-3275.90;99.60;;;;;;5005238;28;20106;-76
2023/11/18 00:56:26;;;;;;;4.43;2.30;;;-3275.90;99.50;;;;;;5006760;28;20084;-76
2023/11/18 00:58:52;;;;;;;6.20;2.65;;;-3275.80;99.50;;;;;;5010544;28;20050;-77
2023/11/18 01:01:18;;;;;;;4.45;2.40;;;-3275.80;99.50;;;;;;5010577;28;20471;-76
2023/11/18 01:03:47;;;;;;;5.47;2.75;;;-3275.80;99.50;;;;;;5009541;28;20034;-76
2023/11/18 01:06:13;;;;;;;4.45;1.92;;;-3275.70;99.50;;;;;;5008849;28;20036;-76
2023/11/18 01:08:38;;;;;;;5.85;2.55;;;-3275.70;99.50;;;;;;5007554;28;20030;-76
2023/11/18 01:11:04;;;;;;;5.60;2.60;;;-3275.70;99.60;;;;;;5006610;28;20049;-76
2023/11/18 01:13:31;;;;;;;6.07;3.15;;;-3275.80;99.60;;;;;;5007571;28;20117;-76
2023/11/18 01:15:57;;;;;;;5.68;2.42;;;-3275.70;99.50;;;;;;5008235;28;20033;-76
2023/11/18 01:18:23;;;;;;;5.68;3.10;;;-3275.80;99.50;;;;;;5006034;28;20508;-76
2023/11/18 01:20:48;;;;;;;8.95;3.10;;;-3275.80;99.60;;;;;;5009438;28;20038;-76
2023/11/18 01:23:14;;;;;;;6.63;2.92;;;-3275.80;99.50;;;;;;5010147;28;20110;-76
2023/11/18 01:25:40;;;;;;;4.63;2.50;;;-3275.70;99.40;;;;;;5007019;28;20073;-76
2023/11/18 01:28:06;;;;;;;4.03;2.15;;;-3275.80;99.60;;;;;;5006004;28;20460;-76
2023/11/18 01:30:32;;;;;;;5.75;2.88;;;-3275.80;99.60;;;;;;5006916;28;20038;-76
2023/11/18 01:33:00;;;;;;;5.20;2.72;;;-3275.90;99.70;;;;;;5007724;28;20478;-76
2023/11/18 01:35:28;;;;;;;5.45;2.70;;;-3275.90;99.70;;;;;;5008920;28;20478;-76
2023/11/18 01:37:54;;;;;;;7.03;2.83;;;-3275.80;99.60;;;;;;5004663;28;20030;-76
2023/11/18 01:40:20;;;;;;;5.07;2.85;;;-3275.70;99.50;;;;;;5007007;28;20375;-76
2023/11/18 01:42:46;;;;;;;4.63;2.40;;;-3275.70;99.70;;;;;;5002811;28;20038;-76
2023/11/18 01:45:14;;;;;;;4.28;2.40;;;-3275.70;99.60;;;;;;5005505;28;20028;-76
2023/11/18 01:47:40;;;;;;;6.80;2.75;;;-3275.60;99.60;;;;;;5008770;28;20030;-76
2023/11/18 01:50:08;;;;;;;4.53;2.45;;;-3275.50;99.60;;;;;;5010998;28;20026;-76
2023/11/18 01:52:35;;;;;;;5.70;3.20;;;-3275.60;99.70;;;;;;5010311;28;20120;-76
2023/11/18 01:55:06;;;;;;;4.40;2.67;;;-3275.50;99.70;;;;;;5007489;28;20034;-76
2023/11/18 01:57:33;;;;;;;4.97;2.53;;;-3275.50;99.70;;;;;;5004158;28;20034;-76
2023/11/18 01:59:58;;;;;;;4.72;2.75;;;-3275.50;99.70;;;;;;5007683;28;20038;-76
2023/11/18 02:02:25;;;;;;;5.50;2.80;;;-3275.50;99.70;;;;;;5007945;28;20045;-76
2023/11/18 02:04:50;;;;;;;5.93;3.05;;;-3275.50;99.60;;;;;;5010389;28;20073;-76
2023/11/18 02:07:17;;;;;;;5.03;2.38;;;-3275.40;99.70;;;;;;5002808;28;20125;-76
2023/11/18 02:09:43;;;;;;;5.35;2.35;;;-3275.40;99.70;;;;;;5010169;28;20483;-76
2023/11/18 02:12:21;;;;;;;5.25;2.63;;;-3275.30;99.60;;;;;;5001761;28;20133;-76
2023/11/18 02:14:49;;;;;;;5.15;2.25;;;-3275.30;99.70;;;;;;5008213;28;20490;-76
2023/11/18 02:17:19;;;;;;;5.03;2.20;;;-3275.30;99.70;;;;;;5002715;28;20034;-76
2023/11/18 02:19:45;;;;;;;8.40;3.10;;;-3275.30;99.60;;;;;;5004525;28;20033;-76
2023/11/18 02:22:11;;;;;;;5.05;2.55;;;-3275.30;99.70;;;;;;5008938;28;20610;-76
2023/11/18 02:24:37;;;;;;;4.60;2.00;;;-3275.30;99.70;;;;;;5004863;28;20477;-76
2023/11/18 02:27:07;;;;;;;4.50;2.47;;;-3275.30;99.70;;;;;;5000690;28;20058;-76
2023/11/18 02:29:40;;;;;;;5.10;2.88;;;-3275.60;99.90;;;;;;5004893;28;20037;-76
2023/11/18 02:32:27;;;;;;;6.13;2.78;;;-3275.80;99.90;;;;;;5003505;28;20076;-76
2023/11/18 02:35:17;;;;;;;4.97;2.50;;;-3275.90;99.90;;;;;;5003338;28;20038;-76
2023/11/18 02:37:47;;;;;;;7.20;3.28;;;-3276.10;99.90;;;;;;5005267;28;20030;-76
2023/11/18 02:40:18;;;;;;;6.40;2.75;;;-3276.30;99.90;;;;;;5001880;28;20100;-76
2023/11/18 02:42:45;;;;;;;6.93;3.00;;;-3276.30;99.90;;;;;;5004548;28;20052;-76
2023/11/18 02:45:16;;;;;;;5.45;3.25;;;-3276.30;99.90;;;;;;5002390;28;20461;-76
2023/11/18 02:47:44;;;;;;;;;;;-3276.30;99.90;;;;;;5007981;28;20037;-76
2023/11/18 02:50:10;;;;;;;7.20;2.95;;;-3276.40;99.90;;;;;;5009713;28;19920;-76
2023/11/18 02:52:42;;;;;;;6.93;3.22;;;-3276.40;99.90;;;;;;5005486;28;20033;-76
2023/11/18 02:55:08;;;;;;;6.55;3.00;;;-3276.40;99.90;;;;;;4998902;28;20034;-76
2023/11/18 02:57:35;;;;;;;7.13;3.15;;;-3276.30;99.90;;;;;;4999579;28;20044;-76
2023/11/18 03:00:01;;;;;;;6.22;2.67;;;-3276.20;99.90;;;;;;5005679;28;20034;-76
2023/11/18 03:02:30;;;;;;;6.32;2.92;;;-3276.20;99.90;;;;;;5001272;28;20022;-76
2023/11/18 03:04:57;;;;;;;6.78;3.08;;;-3276.20;99.90;;;;;;5009470;28;20034;-76
2023/11/18 03:07:22;;;;;;;7.82;3.22;;;-3276.10;99.90;;;;;;5007089;28;20038;-76
2023/11/18 03:09:48;;;;;;;4.68;2.35;;;-3276.10;99.90;;;;;;5007812;28;20037;-76
2023/11/18 03:12:13;;;;;;;8.63;3.03;;;-3276.00;99.90;;;;;;5006618;28;20446;-76
2023/11/18 03:14:39;;;;;;;6.05;2.75;;;-3276.00;99.90;;;;;;5008864;28;20030;-76
2023/11/18 03:17:06;;;;;;;4.97;2.75;;;-3276.00;99.90;;;;;;5002882;28;20069;-76
2023/11/18 03:19:34;;;;;;;7.18;3.13;;;-3276.00;99.90;;;;;;5023494;28;20037;-76
2023/11/18 03:22:00;;;;;;;7.57;3.17;;;-3275.90;99.90;;;;;;5003123;28;20030;-76
2023/11/18 03:24:26;;;;;;;3.78;2.05;;;-3275.90;99.90;;;;;;5004221;28;20033;-76
2023/11/18 03:26:51;;;;;;;5.20;2.65;;;-3275.80;99.90;;;;;;5002717;28;20054;-76
2023/11/18 03:29:17;;;;;;;5.07;2.58;;;-3275.80;99.90;;;;;;5000426;28;20042;-76
2023/11/18 03:31:44;;;;;;;7.47;2.67;;;-3275.80;99.90;;;;;;5007306;28;20116;-76
2023/11/18 03:34:10;;;;;;;6.40;2.80;;;-3275.70;99.90;;;;;;5002192;28;20029;-76
2023/11/18 03:36:35;;;;;;;5.68;2.75;;;-3275.70;99.90;;;;;;5006231;28;20441;-76
2023/11/18 03:39:01;;;;;;;4.15;2.17;;;-3275.70;99.90;;;;;;5007982;28;20116;-76
2023/11/18 03:41:27;;;;;;;5.18;2.97;;;-3275.60;99.90;;;;;;5005897;28;20061;-76
2023/11/18 03:43:52;;;;;;;7.07;3.35;;;-3275.70;99.90;;;;;;4996299;28;20073;-76
2023/11/18 03:46:18;;;;;;;6.95;2.75;;;-3275.70;99.90;;;;;;5006440;28;20068;-76
2023/11/18 03:48:44;;;;;;;6.57;2.80;;;-3275.80;99.90;;;;;;5007112;28;20033;-76
2023/11/18 03:51:10;;;;;;;6.80;3.50;;;-3275.80;99.90;;;;;;5004479;28;20045;-76
2023/11/18 03:53:35;;;;;;;9.00;3.25;;;-3275.90;99.90;;;;;;5002614;28;20042;-76
2023/11/18 03:56:02;;;;;;;8.82;3.33;;;-3275.80;99.90;;;;;;5006196;28;20500;-76
2023/11/18 03:58:28;;;;;;;5.22;2.67;;;-3275.80;99.90;;;;;;5001447;28;20510;-76
2023/11/18 04:00:53;;;;;;;8.68;3.38;;;-3275.80;99.90;;;;;;5006218;28;20049;-76
2023/11/18 04:03:19;;;;;;;6.32;2.92;;;-3275.70;99.90;;;;;;5009247;28;20084;-76
2023/11/18 04:05:44;;;;;;;7.60;2.83;;;-3275.70;99.90;;;;;;5006297;28;20034;-76
2023/11/18 04:08:11;;;;;;;6.28;2.90;;;-3275.70;99.90;;;;;;5002236;28;20436;-76
2023/11/18 04:10:37;;;;;;;5.10;2.45;;;-3275.70;99.90;;;;;;5005907;28;20524;-76
2023/11/18 04:13:02;;;;;;;6.43;3.20;;;-3275.70;99.90;;;;;;5005324;28;20062;-76
2023/11/18 04:15:28;;;;;;;4.90;2.67;;;-3275.70;99.90;;;;;;5005663;28;20038;-76
2023/11/18 04:17:53;;;;;;;5.57;2.75;;;-3275.70;99.90;;;;;;5001199;28;20032;-76
2023/11/18 04:20:19;;;;;;;7.28;3.38;;;-3275.60;99.90;;;;;;5008765;28;20613;-76
2023/11/18 04:22:44;;;;;;;5.55;2.92;;;-3275.60;99.90;;;;;;5004606;28;20105;-76
2023/11/18 04:25:11;;;;;;;7.47;3.13;;;-3275.50;99.90;;;;;;5007216;28;20072;-76
2023/11/18 04:27:40;;;;;;;7.03;3.50;;;-3275.50;99.90;;;;;;5000512;28;20050;-76
2023/11/18 04:30:06;;;;;;;5.20;2.67;;;-3275.60;99.90;;;;;;5003931;28;20378;-76
2023/11/18 04:32:34;;;;;;;5.03;2.47;;;-3275.60;99.90;;;;;;5003918;28;20042;-76
2023/11/18 04:35:06;;;;;;;6.50;3.55;;;-3275.70;99.90;;;;;;5012030;28;20038;-76
2023/11/18 04:37:32;;;;;;;6.93;2.97;;;-3275.70;99.90;;;;;;5002073;28;20542;-76
2023/11/18 04:39:58;;;;;;;6.80;3.05;;;-3275.70;99.90;;;;;;5010174;28;20032;-76
2023/11/18 04:42:23;;;;;;;6.13;2.92;;;-3275.70;99.90;;;;;;5006747;28;20149;-76
2023/11/18 04:44:49;;;;;;;6.88;3.38;;;-3275.70;99.90;;;;;;5005771;28;20038;-76
2023/11/18 04:47:14;;;;;;;9.00;3.35;;;-3275.70;99.90;;;;;;5003616;28;20048;-76
2023/11/18 04:49:40;;;;;;;7.47;3.55;;;-3275.60;99.90;;;;;;5009124;28;20041;-76
2023/11/18 04:52:06;;;;;;;6.53;2.38;;;-3275.60;99.90;;;;;;5004020;28;20038;-76
2023/11/18 04:54:31;;;;;;;7.10;2.95;;;-3275.60;99.90;;;;;;5012119;28;20052;-76
2023/11/18 04:56:57;;;;;;;6.70;2.80;;;-3275.60;99.90;;;;;;5006895;28;20073;-76
2023/11/18 04:59:23;;;;;;;6.10;2.83;;;-3275.60;99.90;;;;;;5001674;28;20026;-76
2023/11/18 05:01:48;;;;;;;6.28;2.63;;;-3275.60;99.90;;;;;;5007852;28;20084;-76
2023/11/18 05:04:14;;;;;;;8.30;3.55;;;-3275.70;99.90;;;;;;5006411;28;20064;-76
2023/11/18 05:06:39;;;;;;;5.18;2.60;;;-3275.60;99.90;;;;;;5007230;28;20061;-76
2023/11/18 05:09:07;;;;;;;8.23;3.05;;;-3275.70;99.90;;;;;;5005953;28;20446;-76
2023/11/18 05:11:33;;;;;;;5.78;2.95;;;-3275.70;99.90;;;;;;5007369;28;20031;-76
2023/11/18 05:13:59;;;;;;;6.00;2.90;;;-3275.70;99.90;;;;;;4999421;28;20362;-76
2023/11/18 05:16:24;;;;;;;9.13;3.00;;;-3275.70;99.90;;;;;;5010044;28;20433;-76
2023/11/18 05:18:50;;;;;;;6.55;3.22;;;-3275.70;99.90;;;;;;5009201;28;20037;-76
2023/11/18 05:21:15;;;;;;;6.10;2.75;;;-3275.70;99.90;;;;;;5009665;28;20038;-76
2023/11/18 05:23:41;;;;;;;5.18;2.40;;;-3275.70;99.90;;;;;;5009242;28;20134;-76
2023/11/18 05:26:06;;;;;;;9.55;3.47;;;-3275.80;99.90;;;;;;5006409;28;20519;-73
2023/11/18 05:28:32;;;;;;;5.40;2.95;;;-3275.80;99.90;;;;;;5000250;28;20108;-73
2023/11/18 05:31:01;;;;;;;7.53;3.08;;;-3275.90;99.90;;;;;;5003265;28;20048;-73
2023/11/18 05:33:28;;;;;;;7.57;3.00;;;-3275.80;99.90;;;;;;5006637;28;20467;-73
2023/11/18 05:35:54;;;;;;;4.82;2.63;;;-3275.80;99.90;;;;;;5006852;28;20359;-73
2023/11/18 05:38:26;;;;;;;7.57;3.25;;;-3275.90;99.90;;;;;;5006362;28;20033;-73
2023/11/18 05:41:00;;;;;;;7.55;3.25;;;-3275.90;99.90;;;;;;5005231;28;20018;-73
2023/11/18 05:43:29;;;;;;;6.78;2.88;;;-3276.00;99.90;;;;;;5007172;28;20034;-73
2023/11/18 05:46:14;;;;;;;8.20;3.42;;;-3276.00;99.90;;;;;;5011104;28;20475;-73
2023/11/18 05:48:43;;;;;;;7.55;3.28;;;-3276.00;99.90;;;;;;5011375;28;20593;-73
2023/11/18 05:51:09;;;;;;;9.25;3.15;;;-3276.00;99.90;;;;;;5003748;28;20037;-73
2023/11/18 05:53:40;;;;;;;5.78;2.53;;;-3276.00;99.90;;;;;;5010538;28;20022;-73
2023/11/18 05:56:06;;;;;;;6.00;2.88;;;-3276.00;99.90;;;;;;5010227;28;20033;-73
2023/11/18 05:58:32;;;;;;;7.38;2.70;;;-3276.00;99.90;;;;;;5004413;28;20045;-72
2023/11/18 06:00:58;;;;;;;7.20;3.00;;;-3276.00;99.90;;;;;;5007694;28;20033;-73
2023/11/18 06:03:24;;;;;;;8.85;2.97;;;-3276.10;99.90;;;;;;5006305;28;20113;-73
2023/11/18 06:05:51;;;;;;;9.80;4.22;;;-3276.10;99.90;;;;;;5006159;28;20030;-73
2023/11/18 06:08:17;;;;;;;8.77;3.17;;;-3276.20;99.90;;;;;;5002597;28;20040;-72
2023/11/18 06:10:44;;;;;;;5.22;2.85;;;-3276.20;99.90;;;;;;5003784;28;20038;-73
2023/11/18 06:13:12;;;;;;;8.15;3.05;;;-3276.20;99.90;;;;;;5001415;28;20034;-73
2023/11/18 06:15:38;;;;;;;8.63;3.95;;;-3276.20;99.90;;;;;;4999193;28;20027;-73
2023/11/18 06:18:05;;;;;;;6.80;3.25;;;-3276.30;99.90;;;;;;4991074;28;20069;-73
2023/11/18 06:20:30;;;;;;;7.03;3.03;;;-3276.30;99.90;;;;;;5005806;28;20026;-73
2023/11/18 06:22:57;;;;;;;9.43;3.40;;;-3276.30;99.90;;;;;;5009397;28;20138;-73
2023/11/18 06:25:25;;;;;;;8.13;3.00;;;-3276.30;99.90;;;;;;5007384;28;20033;-73
2023/11/18 06:27:52;;;;;;;7.65;3.40;;;-3276.40;99.90;;;;;;5006298;28;20037;-73
2023/11/18 06:30:19;;;;;;;5.00;2.83;;;-3276.30;99.90;;;;;;5001554;28;20057;-72
2023/11/18 06:32:46;;;;;;;7.55;3.17;;;-3276.40;99.90;;;;;;5006373;28;20033;-72
2023/11/18 06:35:14;;;;;;;8.32;3.28;;;-3276.40;99.90;;;;;;5010388;28;20425;-72
2023/11/18 06:37:40;;;;;;;4.80;2.22;;;-3276.50;99.90;;;;;;5006013;28;20053;-72
2023/11/18 06:40:16;;;;;;;6.13;3.13;;;-3276.50;99.90;;;;;;5004456;28;20087;-72
2023/11/18 06:42:47;;;;;;;6.53;2.78;;;-3276.50;99.90;;;;;;5005923;28;20026;-72
2023/11/18 06:45:13;;;;;;;6.75;3.45;;;-3276.40;99.90;;;;;;5001279;28;20073;-72
2023/11/18 06:47:40;;;;;;;5.75;2.80;;;-3276.30;99.90;;;;;;5008506;28;20038;-72
2023/11/18 06:50:08;;;;;;;7.80;3.03;;;-3276.20;99.90;;;;;;5008751;28;20121;-72
2023/11/18 06:52:37;;;;;;;7.65;2.80;;;-3276.20;99.90;;;;;;5008656;28;20053;-72
2023/11/18 06:55:03;;;;;;;6.10;3.17;;;-3276.20;99.90;;;;;;5005104;28;20049;-73
2023/11/18 06:57:28;;;;;;;9.43;3.80;;;-3276.30;99.90;;;;;;5001298;28;20053;-72
2023/11/18 06:59:54;;;;;;;7.78;3.33;;;-3276.40;99.90;;;;;;4999276;28;20483;-72
2023/11/18 07:02:20;;;;;;;7.20;2.67;;;-3276.50;99.90;;;;;;5008530;28;20034;-73
2023/11/18 07:04:46;;;;;;;8.60;4.35;;;-3276.60;99.90;;;;;;5002961;28;20125;-72
2023/11/18 07:07:12;;;;;;;6.07;2.95;;;-3276.70;99.90;;;;;;5003219;28;20458;-72
2023/11/18 07:09:39;;;;;;;7.13;3.40;;;0.10;99.90;;;;;;4999734;28;20105;-72
2023/11/18 07:12:05;;;;;;;7.60;3.63;;;0.10;99.90;;;;;;5005756;28;20026;-77
2023/11/18 07:14:30;;;;;;;8.82;4.28;;;0.30;99.90;;;;;;5004658;28;20463;-74
2023/11/18 07:16:56;;;;;;;8.07;3.83;;;0.40;99.90;;;;;;5003953;28;20034;-71
2023/11/18 07:19:22;;;;;;;10.43;4.32;;;0.50;99.90;;;;;;5011430;28;20088;-72
2023/11/18 07:21:49;;;;;;;7.18;3.97;;;0.50;99.90;;;;;;5017070;28;20108;-72
2023/11/18 07:24:14;;;;;;;6.03;3.30;;;0.60;99.90;;;;;;5005960;28;20022;-72
2023/11/18 07:26:39;;;;;;;5.38;2.53;;;0.70;99.90;;;;;;5007377;28;20054;-72
2023/11/18 07:29:07;;;;;;;6.15;2.97;;;0.70;99.90;;;;;;5004598;28;20121;-72
2023/11/18 07:31:35;;;;;;;6.82;3.08;;;0.80;99.90;;;;;;5002740;28;20026;-74
2023/11/18 07:34:03;;;;;;;5.63;2.67;;;0.90;99.90;;;;;;5003213;28;20459;-74
2023/11/18 07:36:28;;;;;;;6.18;2.80;;;1.00;99.90;;;;;;5007243;28;20131;-74
2023/11/18 07:38:55;;;;;;;5.28;2.30;;;1.00;99.90;;;;;;5007655;28;20137;-74
2023/11/18 07:41:23;;;;;;;4.25;2.38;;;1.10;99.90;;;;;;5000371;28;20104;-74
2023/11/18 07:43:51;;;;;;;6.75;2.85;;;1.00;99.90;;;;;;5005232;28;20062;-73
2023/11/18 07:46:16;;;;;;;4.53;2.50;;;1.00;99.90;;;;;;5002283;28;20032;-75
2023/11/18 07:48:42;;;;;;;6.53;2.83;;;1.00;99.90;;;;;;4998914;28;20033;-75
2023/11/18 07:51:08;;;;;;;6.22;3.05;;;1.10;99.90;;;;;;5006756;28;20063;-75
2023/11/18 07:53:33;;;;;;;5.13;2.78;;;1.10;99.90;;;;;;5010006;28;20026;-75
2023/11/18 07:56:02;;;;;;;3.97;2.20;;;1.10;99.90;;;;;;5006659;28;20030;-75
2023/11/18 07:58:27;;;;;;;6.57;2.72;;;1.10;99.90;;;;;;5001821;28;20461;-75
2023/11/18 08:00:54;;;;;;;5.93;2.97;;;1.20;99.90;;;;;;5005413;28;20026;-75
2023/11/18 08:03:20;;;;;;;6.90;2.60;;;1.20;99.90;;;;;;5000837;28;20117;-75
2023/11/18 08:05:45;;;;;;;6.15;2.63;;;1.30;99.90;;;;;;5007987;28;20118;-75
2023/11/18 08:08:12;;;;;;;6.78;2.88;;;1.30;99.90;;;;;;5005036;28;20359;-75
2023/11/18 08:10:39;;;;;;;7.55;3.15;;;1.30;99.90;;;;;;5008493;28;20041;-75
2023/11/18 08:13:06;;;;;;;7.75;2.83;;;1.40;99.90;;;;;;5004422;28;20052;-75
2023/11/18 08:15:32;;;;;;;7.70;2.67;;;1.50;99.90;;;;;;5009203;28;20117;-75
2023/11/18 08:17:57;;;;;;;5.95;2.95;;;1.60;99.90;;;;;;5005169;28;20108;-75
2023/11/18 08:20:25;;;;;;;5.57;2.45;;;1.70;99.90;;;;;;5010148;28;20378;-75
2023/11/18 08:22:50;;;;;;;7.13;2.85;;;1.70;99.90;;;;;;5008097;28;20453;-75
2023/11/18 08:25:17;;;;;;;8.05;3.15;;;1.90;99.90;;;;;;5006881;28;20029;-75
2023/11/18 08:27:45;;;;;;;5.03;2.45;;;2.00;99.90;;;;;;5007517;28;20080;-75
2023/11/18 08:30:12;;;;;;;5.25;3.10;;;2.10;99.90;;;;;;5006634;28;21521;-75
2023/11/18 08:32:38;;;;;;;7.28;3.95;;;2.10;99.90;;;;;;5006282;28;20041;-75
2023/11/18 08:35:07;;;;;;;6.30;3.10;;;2.20;99.90;;;;;;5009584;28;20026;-75
2023/11/18 08:37:34;;;;;;;6.80;4.03;;;2.30;99.90;;;;;;5012750;28;20036;-74
2023/11/18 08:40:01;;;;;;;6.43;2.65;;;2.20;99.80;;;;;;5004216;28;20068;-75
2023/11/18 08:42:27;;;;;;;7.32;3.90;;;2.20;99.60;;;;;;5008382;28;20091;-75
2023/11/18 08:44:55;;;;;;;8.15;3.40;;;2.20;99.60;;;;;;5004978;28;20417;-75
2023/11/18 08:47:21;;;;;;;7.75;3.30;;;2.30;99.50;;;;;;5000760;28;20944;-74
2023/11/18 08:49:46;;;;;;;5.30;2.70;;;2.20;99.40;;;;;;5000508;28;20038;-74
2023/11/18 08:52:12;;;;;;;8.27;4.32;;;2.20;99.30;;;;;;5004705;28;20379;-71
2023/11/18 08:55:12;;;;;;;8.80;3.05;;;2.30;99.30;;;;;;5009427;28;20022;-73
2023/11/18 08:57:25;;;;;;;6.18;3.33;;;2.40;99.30;;;;;;5005442;28;20109;-76
2023/11/18 08:59:51;;;;;;;5.57;2.85;;;2.40;99.30;;;;;;5003155;28;20049;-76
2023/11/18 09:02:23;;;;;;;6.22;2.65;;;2.30;99.20;;;;;;5025577;28;20037;-73
2023/11/18 09:04:49;;;;;;;5.25;2.70;;;2.30;99.20;;;;;;5005101;28;20378;-71
2023/11/18 09:07:15;;;;;;;5.28;2.38;;;2.30;99.10;;;;;;5003214;28;20025;-75
2023/11/18 09:09:41;;;;;;;6.70;2.88;;;2.30;99.20;;;;;;5010101;28;20030;-71
2023/11/18 09:12:08;;;;;;;6.18;2.97;;;2.30;99.10;;;;;;5009583;28;20595;-71
2023/11/18 09:14:33;;;;;;;6.72;2.97;;;2.30;99.20;;;;;;5001830;28;20032;-71
2023/11/18 09:16:59;;;;;;;6.47;3.17;;;2.30;99.20;;;;;;5002199;28;20109;-72
2023/11/18 09:19:25;;;;;;;6.82;3.33;;;2.40;99.30;;;;;;5004497;28;20096;-73
2023/11/18 09:21:51;;;;;;;5.97;2.92;;;2.50;99.30;;;;;;5007434;28;20454;-73
2023/11/18 09:24:19;;;;;;;7.80;2.80;;;2.60;99.30;;;;;;5002072;28;20077;-73
2023/11/18 09:26:47;;;;;;;5.40;2.50;;;2.70;99.30;;;;;;5005048;28;20061;-73
2023/11/18 09:29:17;;;;;;;4.70;2.63;;;2.80;99.30;;;;;;5006912;28;20030;-72
2023/11/18 09:31:47;;;;;;;7.35;3.55;;;3.00;99.20;;;;;;5004227;28;20131;-73
2023/11/18 09:34:17;;;;;;;9.43;3.53;;;3.10;99.10;;;;;;5004651;28;20038;-73
2023/11/18 09:36:48;;;;;;;6.65;3.08;;;3.30;99.10;;;;;;5007682;28;20034;-73
2023/11/18 09:39:28;;;;;;;6.20;2.97;;;3.40;99.00;;;;;;5006100;28;20038;-72
2023/11/18 09:41:56;;;;;;;6.72;3.13;;;3.50;98.60;;;;;;5010198;28;20033;-72
2023/11/18 09:44:25;;;;;;;6.57;3.50;;;3.60;98.60;;;;;;5002534;28;20022;-72
2023/11/18 09:47:04;;;;;;;7.93;2.65;;;3.60;98.10;;;;;;5006376;28;20034;-72
2023/11/18 09:49:38;;;;;;;7.70;2.85;;;3.80;98.10;;;;;;5003611;28;20124;-73
2023/11/18 09:52:05;;;;;;;7.20;2.65;;;4.00;97.90;;;;;;5006752;28;20026;-73
2023/11/18 09:54:41;;;;;;;7.93;3.13;;;4.20;97.90;;;;;;5007422;28;20380;-73
2023/11/18 09:57:39;;;;;;;8.73;3.33;;;4.30;97.60;;;;;;5004703;28;20034;-73
2023/11/18 10:00:10;;;;;;;7.15;3.42;;;4.60;97.50;;;;;;5008914;28;20092;-72
2023/11/18 10:02:39;;;;;;;9.32;3.22;;;4.70;96.70;;;;;;5001771;28;21089;-72
2023/11/18 10:05:12;;;;;;;6.47;3.10;;;4.90;96.70;;;;;;4999360;28;20026;-72
2023/11/18 10:07:41;;;;;;;5.20;2.88;;;5.00;96.50;;;;;;5001028;28;20046;-72
2023/11/18 10:10:16;;;;;;;5.82;3.15;;;5.20;96.10;;;;;;4999790;28;20034;-72
2023/11/18 10:12:45;;;;;;;5.15;2.72;;;5.10;95.40;;;;;;4998731;28;20751;-73
2023/11/18 10:15:15;;;;;;;6.43;3.08;;;5.20;95.30;;;;;;5004389;28;20038;-73
2023/11/18 10:18:06;;;;;;;6.30;3.10;;;5.00;95.00;;;;;;5006355;28;20084;-72
2023/11/18 10:20:46;;;;;;;5.05;2.85;;;5.00;95.30;;;;;;5007204;28;20420;-72
2023/11/18 10:23:19;;;;;;;8.50;3.85;;;5.00;95.40;;;;;;5002502;28;20151;-71
2023/11/18 10:25:49;;;;;;;6.03;3.08;;;4.90;95.40;;;;;;5006868;28;20049;-73
2023/11/18 10:28:22;;;;;;;5.97;3.27;;;4.90;95.30;;;;;;5004179;28;20044;-72
2023/11/18 10:30:48;;;;;;;5.43;2.78;;;4.90;95.70;;;;;;5004803;28;20320;-72
2023/11/18 10:33:16;;;;;;;6.55;2.72;;;4.80;95.70;;;;;;5003595;28;20466;-72
2023/11/18 10:35:51;;;;;;;6.10;2.92;;;4.80;95.60;;;;;;5006574;28;20067;-72
2023/11/18 10:38:17;;;;;;;4.88;2.38;;;4.80;95.70;;;;;;5007202;28;20473;-72
2023/11/18 10:40:43;;;;;;;6.43;3.00;;;4.80;95.70;;;;;;4997651;28;20046;-71
2023/11/18 10:43:09;;;;;;;5.88;3.45;;;4.90;95.60;;;;;;5008367;28;20088;-73
2023/11/18 10:45:38;;;;;;;6.13;3.03;;;4.80;95.50;;;;;;5000372;28;20030;-73
2023/11/18 10:48:07;;;;;;;5.38;2.47;;;4.80;95.70;;;;;;5005662;28;20030;-73
2023/11/18 10:50:33;;;;;;;6.72;3.00;;;4.90;95.60;;;;;;5003429;28;20034;-72
2023/11/18 10:53:03;;;;;;;5.68;3.03;;;4.90;95.30;;;;;;5004352;28;20041;-73
2023/11/18 10:55:40;;;;;;;6.28;3.15;;;5.00;95.70;;;;;;5002473;28;20034;-75
2023/11/18 10:58:07;;;;;;;6.30;3.35;;;5.10;95.40;;;;;;5004252;28;20056;-73
2023/11/18 11:00:55;;;;;;;7.07;3.45;;;5.10;95.20;;;;;;5008704;28;20057;-72
2023/11/18 11:03:23;;;;;;;7.68;3.42;;;5.10;94.90;;;;;;5004668;28;20030;-72
2023/11/18 11:05:54;;;;;;;6.40;3.17;;;5.10;95.00;;;;;;4999880;28;20372;-73
2023/11/18 11:08:20;;;;;;;6.90;3.30;;;5.30;94.90;;;;;;5009563;28;20216;-74
2023/11/18 11:10:48;;;;;;;8.57;3.33;;;5.40;94.80;;;;;;5001050;28;20038;-73
2023/11/18 11:13:17;;;;;;;7.00;3.38;;;5.60;94.60;;;;;;5002670;28;20393;-73
2023/11/18 11:15:49;;;;;;;8.45;3.97;;;5.60;94.20;;;;;;5005338;28;20112;-73
2023/11/18 11:18:23;;;;;;;6.65;2.88;;;5.50;94.20;;;;;;5004958;28;20561;-73
2023/11/18 11:20:57;;;;;;;7.55;3.35;;;5.60;94.30;;;;;;5007905;28;20164;-73
2023/11/18 11:23:43;;;;;;;9.52;4.28;;;5.60;94.40;;;;;;4998683;28;20109;-73
2023/11/18 11:26:39;;;;;;;7.30;3.55;;;5.60;94.50;;;;;;5002981;28;20045;-73
2023/11/18 11:29:32;;;;;;;8.48;3.60;;;5.50;94.50;;;;;;4998270;28;20037;-73
2023/11/18 11:32:18;;;;;;;7.22;4.22;;;5.60;94.80;;;;;;5001785;28;20041;-74
2023/11/18 11:34:56;;;;;;;9.38;4.10;;;5.50;94.70;;;;;;5000640;28;20030;-72
2023/11/18 11:37:25;;;;;;;8.88;4.32;;;5.50;95.10;;;;;;5001778;28;20036;-75
2023/11/18 11:39:53;;;;;;;9.50;4.53;;;5.50;95.50;;;;;;5005816;28;20032;-73
2023/11/18 11:42:21;;;;;;;12.45;5.32;;;5.40;95.40;;;;;;5006626;28;20105;-73
2023/11/18 11:44:49;;;;;;;11.57;5.30;;;5.30;95.80;;;;;;5006566;28;20117;-73
2023/11/18 11:47:15;;;;;;;13.18;6.18;;;5.10;95.80;;;;;;5003352;28;20088;-73
2023/11/18 11:49:52;;;;;;;14.68;7.22;;;4.90;96.40;;;;;;5007196;28;20041;-73
2023/11/18 11:52:30;;;;;;;11.90;6.03;;;5.00;97.00;;;;;;5004637;28;20038;-73
2023/11/18 11:55:13;;;;;;;14.52;6.57;;;5.00;96.80;;;;;;5007417;28;20038;-73
2023/11/18 11:57:45;;;;;;;14.30;6.10;;;5.00;96.80;;;;;;5004638;28;20034;-73
2023/11/18 12:00:17;;;;;;;13.52;6.65;;;4.80;97.00;;;;;;5006612;28;20030;-73
2023/11/18 12:02:52;;;;;;;16.38;6.97;;;4.80;97.20;;;;;;5006580;28;20758;-73
2023/11/18 12:05:25;;;;;;;16.95;6.57;;;4.80;97.30;;;;;;5003301;28;20046;-72
2023/11/18 12:07:51;;;;;;;15.38;7.32;;;4.80;97.20;;;;;;5010840;28;20111;-73
2023/11/18 12:10:21;;;;;;;14.13;6.47;;;4.80;97.40;;;;;;5008930;28;20085;-72
2023/11/18 12:12:47;;;;;;;13.82;6.53;;;4.80;97.30;;;;;;5012646;28;20040;-72
2023/11/18 12:15:17;;;;;;;15.07;6.25;;;4.80;97.30;;;;;;5010517;28;20033;-71
2023/11/18 12:17:58;;;;;;;14.13;6.78;;;4.80;97.30;;;;;;5009363;28;20030;-72
2023/11/18 12:20:47;;;;;;;13.27;6.88;;;4.80;97.20;;;;;;5011213;28;20247;-72
2023/11/18 12:23:17;;;;;;;13.40;5.75;;;4.80;97.30;;;;;;5016836;28;20705;-72
2023/11/18 12:25:45;;;;;;;12.98;6.40;;;4.80;97.30;;;;;;5024075;28;20029;-72
2023/11/18 12:28:15;;;;;;;15.02;6.88;;;4.80;97.40;;;;;;5009106;28;20537;-72
2023/11/18 12:30:43;;;;;;;16.38;7.20;;;4.80;97.30;;;;;;5008946;28;20030;-72
2023/11/18 12:33:09;;;;;;;15.27;7.07;;;4.90;97.30;;;;;;5006523;28;20022;-73
2023/11/18 12:36:01;;;;;;;14.35;6.18;;;4.90;97.20;;;;;;5005679;28;20462;-73
2023/11/18 12:38:57;;;;;;;15.32;7.60;;;4.90;97.30;;;;;;5009760;28;20040;-73